KCTZ/CTZ METAR and TAF weather

Enter ICAO airport designator
Station Type Date Time Source
KCTZ METAR 2019/12/14 11:15 UTC NOAA

KCTZ 141115Z AUTO 19003KT 3SM OVC003 11/11 A2959 RMK AO2 P0003 T01050105


Station Type Date Time Source
KCTZ Decoded METAR 2019/12/14 11:15 UTC NOAA

Clinton, Sampson County Airport, NC, United States (KCTZ) 34-58-32N 078-21-53W
Dec 14, 2019 - 06:15 AM EST / 2019.12.14 1115 UTC
Wind: from the S (190 degrees) at 3 MPH (3 KT):0
Visibility: 3 mile(s):0
Sky conditions: overcast
Precipitation last hour: 0.03 inches
Temperature: 50.9 F (10.5 C)
Dew Point: 50.9 F (10.5 C)
Relative Humidity: 100%
Pressure (altimeter): 29.59 in. Hg (1002 hPa)
ob: KCTZ 141115Z AUTO 19003KT 3SM OVC003 11/11 A2959 RMK AO2 P0003 T01050105
cycle: 11

Station Type Date Time Source
KCTZ TAF UTC NOAA

Error!

Example: see airport list